sensor_id;sensor_type;location;lat;lon;timestamp;P1;durP1;ratioP1;P2;durP2;ratioP2
15354;SDS011;7777;52.254;9.618;2023-05-16T00:00:18;7.13;;;4.73;;
15354;SDS011;7777;52.254;9.618;2023-05-16T00:02:44;7.80;;;4.90;;
15354;SDS011;7777;52.254;9.618;2023-05-16T00:05:13;6.10;;;5.10;;
15354;SDS011;7777;52.254;9.618;2023-05-16T00:07:41;9.07;;;5.37;;
15354;SDS011;7777;52.254;9.618;2023-05-16T00:10:08;7.30;;;4.40;;
15354;SDS011;7777;52.254;9.618;2023-05-16T00:12:35;6.70;;;4.60;;
15354;SDS011;7777;52.254;9.618;2023-05-16T00:15:03;5.33;;;4.47;;
15354;SDS011;7777;52.254;9.618;2023-05-16T00:17:37;8.43;;;4.07;;
15354;SDS011;7777;52.254;9.618;2023-05-16T00:20:05;6.63;;;4.43;;
15354;SDS011;7777;52.254;9.618;2023-05-16T00:22:32;6.63;;;4.03;;
15354;SDS011;7777;52.254;9.618;2023-05-16T00:30:50;6.63;;;3.73;;
15354;SDS011;7777;52.254;9.618;2023-05-16T00:34:28;4.40;;;3.67;;
15354;SDS011;7777;52.254;9.618;2023-05-16T00:37:38;4.27;;;3.07;;
15354;SDS011;7777;52.254;9.618;2023-05-16T00:40:45;5.63;;;3.93;;
15354;SDS011;7777;52.254;9.618;2023-05-16T00:43:57;5.43;;;3.30;;
15354;SDS011;7777;52.254;9.618;2023-05-16T00:47:07;5.10;;;3.60;;
15354;SDS011;7777;52.254;9.618;2023-05-16T00:50:07;7.17;;;3.47;;
15354;SDS011;7777;52.254;9.618;2023-05-16T00:53:09;6.30;;;3.27;;
15354;SDS011;7777;52.254;9.618;2023-05-16T00:56:13;6.63;;;3.73;;
15354;SDS011;7777;52.254;9.618;2023-05-16T01:02:34;5.77;;;3.70;;
15354;SDS011;7777;52.254;9.618;2023-05-16T01:08:53;6.20;;;3.57;;
15354;SDS011;7777;52.254;9.618;2023-05-16T01:15:54;5.77;;;3.50;;
15354;SDS011;7777;52.254;9.618;2023-05-16T01:26:55;6.30;;;3.67;;
15354;SDS011;7777;52.254;9.618;2023-05-16T01:29:45;5.53;;;3.47;;
15354;SDS011;7777;52.254;9.618;2023-05-16T01:33:15;9.90;;;3.83;;
15354;SDS011;7777;52.254;9.618;2023-05-16T01:42:36;7.63;;;3.50;;
15354;SDS011;7777;52.254;9.618;2023-05-16T02:14:37;5.57;;;3.40;;
15354;SDS011;7777;52.254;9.618;2023-05-16T02:17:03;4.53;;;2.77;;
15354;SDS011;7777;52.254;9.618;2023-05-16T02:19:29;6.80;;;3.17;;
15354;SDS011;7777;52.254;9.618;2023-05-16T02:21:55;8.33;;;3.20;;
15354;SDS011;7777;52.254;9.618;2023-05-16T02:24:21;8.87;;;3.20;;
15354;SDS011;7777;52.254;9.618;2023-05-16T02:26:46;5.47;;;2.20;;
15354;SDS011;7777;52.254;9.618;2023-05-16T02:29:12;5.00;;;2.50;;
15354;SDS011;7777;52.254;9.618;2023-05-16T02:31:40;4.00;;;1.90;;
15354;SDS011;7777;52.254;9.618;2023-05-16T02:34:06;6.50;;;2.27;;
15354;SDS011;7777;52.254;9.618;2023-05-16T02:36:33;6.03;;;2.17;;
15354;SDS011;7777;52.254;9.618;2023-05-16T02:39:00;5.67;;;2.37;;
15354;SDS011;7777;52.254;9.618;2023-05-16T02:41:28;6.33;;;1.73;;
15354;SDS011;7777;52.254;9.618;2023-05-16T02:43:54;5.07;;;1.60;;
15354;SDS011;7777;52.254;9.618;2023-05-16T02:48:46;5.43;;;1.40;;
15354;SDS011;7777;52.254;9.618;2023-05-16T02:51:13;6.67;;;1.60;;
15354;SDS011;7777;52.254;9.618;2023-05-16T02:53:38;8.13;;;1.50;;
15354;SDS011;7777;52.254;9.618;2023-05-16T02:56:04;4.57;;;1.50;;
15354;SDS011;7777;52.254;9.618;2023-05-16T02:58:31;6.43;;;1.80;;
15354;SDS011;7777;52.254;9.618;2023-05-16T03:00:58;4.67;;;2.00;;
15354;SDS011;7777;52.254;9.618;2023-05-16T03:03:23;2.07;;;1.20;;
15354;SDS011;7777;52.254;9.618;2023-05-16T03:05:50;6.13;;;1.30;;
15354;SDS011;7777;52.254;9.618;2023-05-16T03:08:16;2.63;;;1.60;;
15354;SDS011;7777;52.254;9.618;2023-05-16T03:10:41;5.80;;;1.60;;
15354;SDS011;7777;52.254;9.618;2023-05-16T03:13:07;5.83;;;1.90;;
15354;SDS011;7777;52.254;9.618;2023-05-16T03:15:33;4.23;;;1.27;;
15354;SDS011;7777;52.254;9.618;2023-05-16T03:17:59;3.60;;;1.40;;
15354;SDS011;7777;52.254;9.618;2023-05-16T03:20:25;5.73;;;1.60;;
15354;SDS011;7777;52.254;9.618;2023-05-16T03:22:51;8.47;;;2.53;;
15354;SDS011;7777;52.254;9.618;2023-05-16T03:25:16;5.80;;;2.00;;
15354;SDS011;7777;52.254;9.618;2023-05-16T03:27:42;5.83;;;2.20;;
15354;SDS011;7777;52.254;9.618;2023-05-16T03:30:08;5.17;;;1.90;;
15354;SDS011;7777;52.254;9.618;2023-05-16T03:32:34;8.77;;;1.67;;
15354;SDS011;7777;52.254;9.618;2023-05-16T03:35:01;5.00;;;1.67;;
15354;SDS011;7777;52.254;9.618;2023-05-16T03:37:27;4.43;;;1.90;;
15354;SDS011;7777;52.254;9.618;2023-05-16T03:39:53;6.97;;;2.00;;
15354;SDS011;7777;52.254;9.618;2023-05-16T03:42:19;6.70;;;1.53;;
15354;SDS011;7777;52.254;9.618;2023-05-16T03:44:45;11.10;;;2.10;;
15354;SDS011;7777;52.254;9.618;2023-05-16T03:47:11;9.27;;;2.17;;
15354;SDS011;7777;52.254;9.618;2023-05-16T03:49:37;7.00;;;1.50;;
15354;SDS011;7777;52.254;9.618;2023-05-16T03:52:03;7.13;;;1.87;;
15354;SDS011;7777;52.254;9.618;2023-05-16T03:54:29;7.57;;;2.20;;
15354;SDS011;7777;52.254;9.618;2023-05-16T03:56:55;8.77;;;2.73;;
15354;SDS011;7777;52.254;9.618;2023-05-16T03:59:21;7.13;;;1.70;;
15354;SDS011;7777;52.254;9.618;2023-05-16T04:01:47;13.63;;;3.10;;
15354;SDS011;7777;52.254;9.618;2023-05-16T04:04:14;7.90;;;2.10;;
15354;SDS011;7777;52.254;9.618;2023-05-16T04:06:40;10.77;;;2.50;;
15354;SDS011;7777;52.254;9.618;2023-05-16T04:09:05;9.20;;;2.10;;
15354;SDS011;7777;52.254;9.618;2023-05-16T04:11:38;5.97;;;2.13;;
15354;SDS011;7777;52.254;9.618;2023-05-16T04:14:03;11.23;;;1.83;;
15354;SDS011;7777;52.254;9.618;2023-05-16T04:16:30;7.67;;;2.83;;
15354;SDS011;7777;52.254;9.618;2023-05-16T04:18:56;7.33;;;1.80;;
15354;SDS011;7777;52.254;9.618;2023-05-16T04:21:23;7.50;;;1.80;;
15354;SDS011;7777;52.254;9.618;2023-05-16T04:24:00;7.03;;;1.70;;
15354;SDS011;7777;52.254;9.618;2023-05-16T04:26:26;16.33;;;2.70;;
15354;SDS011;7777;52.254;9.618;2023-05-16T04:28:54;10.67;;;2.10;;
15354;SDS011;7777;52.254;9.618;2023-05-16T04:31:21;7.77;;;2.13;;
15354;SDS011;7777;52.254;9.618;2023-05-16T04:33:47;9.17;;;2.13;;
15354;SDS011;7777;52.254;9.618;2023-05-16T04:36:46;7.10;;;2.03;;
15354;SDS011;7777;52.254;9.618;2023-05-16T04:39:08;7.73;;;2.20;;
15354;SDS011;7777;52.254;9.618;2023-05-16T04:41:34;9.90;;;2.43;;
15354;SDS011;7777;52.254;9.618;2023-05-16T04:44:01;14.77;;;2.40;;
15354;SDS011;7777;52.254;9.618;2023-05-16T04:46:30;8.53;;;2.07;;
15354;SDS011;7777;52.254;9.618;2023-05-16T04:48:56;7.33;;;2.23;;
15354;SDS011;7777;52.254;9.618;2023-05-16T04:51:22;10.07;;;2.00;;
15354;SDS011;7777;52.254;9.618;2023-05-16T04:53:48;10.33;;;2.23;;
15354;SDS011;7777;52.254;9.618;2023-05-16T04:56:14;6.20;;;1.80;;
15354;SDS011;7777;52.254;9.618;2023-05-16T04:58:39;9.23;;;2.43;;
15354;SDS011;7777;52.254;9.618;2023-05-16T05:01:05;11.87;;;2.37;;
15354;SDS011;7777;52.254;9.618;2023-05-16T05:03:31;12.63;;;3.53;;
15354;SDS011;7777;52.254;9.618;2023-05-16T05:06:00;11.07;;;2.80;;
15354;SDS011;7777;52.254;9.618;2023-05-16T05:08:25;12.10;;;2.33;;
15354;SDS011;7777;52.254;9.618;2023-05-16T05:10:51;9.33;;;2.13;;
15354;SDS011;7777;52.254;9.618;2023-05-16T05:13:19;15.10;;;3.00;;
15354;SDS011;7777;52.254;9.618;2023-05-16T05:15:47;8.30;;;2.43;;
15354;SDS011;7777;52.254;9.618;2023-05-16T05:18:16;7.27;;;2.10;;
15354;SDS011;7777;52.254;9.618;2023-05-16T05:20:42;10.77;;;2.40;;
15354;SDS011;7777;52.254;9.618;2023-05-16T05:23:09;16.80;;;3.23;;
15354;SDS011;7777;52.254;9.618;2023-05-16T05:25:35;14.50;;;2.97;;
15354;SDS011;7777;52.254;9.618;2023-05-16T05:28:01;18.00;;;4.17;;
15354;SDS011;7777;52.254;9.618;2023-05-16T05:30:28;13.90;;;2.33;;
15354;SDS011;7777;52.254;9.618;2023-05-16T05:32:57;17.50;;;3.73;;
15354;SDS011;7777;52.254;9.618;2023-05-16T05:35:23;15.27;;;2.63;;
15354;SDS011;7777;52.254;9.618;2023-05-16T05:38:02;15.03;;;2.83;;
15354;SDS011;7777;52.254;9.618;2023-05-16T05:40:28;9.80;;;2.10;;
15354;SDS011;7777;52.254;9.618;2023-05-16T05:42:59;10.90;;;2.37;;
15354;SDS011;7777;52.254;9.618;2023-05-16T05:45:25;10.87;;;2.13;;
15354;SDS011;7777;52.254;9.618;2023-05-16T05:48:01;14.50;;;2.33;;
15354;SDS011;7777;52.254;9.618;2023-05-16T05:50:27;9.13;;;2.03;;
15354;SDS011;7777;52.254;9.618;2023-05-16T05:52:53;15.63;;;2.47;;
15354;SDS011;7777;52.254;9.618;2023-05-16T05:55:19;13.53;;;3.10;;
15354;SDS011;7777;52.254;9.618;2023-05-16T05:57:45;14.03;;;2.70;;
15354;SDS011;7777;52.254;9.618;2023-05-16T06:00:11;12.67;;;2.60;;
15354;SDS011;7777;52.254;9.618;2023-05-16T06:02:40;16.10;;;3.13;;
15354;SDS011;7777;52.254;9.618;2023-05-16T06:05:06;11.37;;;2.23;;
15354;SDS011;7777;52.254;9.618;2023-05-16T06:07:32;12.27;;;2.77;;
15354;SDS011;7777;52.254;9.618;2023-05-16T06:09:58;13.20;;;2.83;;
15354;SDS011;7777;52.254;9.618;2023-05-16T06:12:28;14.43;;;2.83;;
15354;SDS011;7777;52.254;9.618;2023-05-16T06:14:54;17.67;;;2.87;;
15354;SDS011;7777;52.254;9.618;2023-05-16T06:17:20;10.17;;;2.03;;
15354;SDS011;7777;52.254;9.618;2023-05-16T06:19:46;11.93;;;2.67;;
15354;SDS011;7777;52.254;9.618;2023-05-16T06:22:12;13.70;;;2.87;;
15354;SDS011;7777;52.254;9.618;2023-05-16T06:24:38;17.67;;;3.20;;
15354;SDS011;7777;52.254;9.618;2023-05-16T06:27:03;15.23;;;2.73;;
15354;SDS011;7777;52.254;9.618;2023-05-16T06:29:29;10.20;;;2.33;;
15354;SDS011;7777;52.254;9.618;2023-05-16T06:31:55;19.47;;;3.57;;
15354;SDS011;7777;52.254;9.618;2023-05-16T06:34:22;11.93;;;2.60;;
15354;SDS011;7777;52.254;9.618;2023-05-16T06:45:17;12.30;;;1.90;;
15354;SDS011;7777;52.254;9.618;2023-05-16T06:47:47;12.83;;;2.70;;
15354;SDS011;7777;52.254;9.618;2023-05-16T06:50:13;10.40;;;2.40;;
15354;SDS011;7777;52.254;9.618;2023-05-16T06:52:39;10.80;;;2.63;;
15354;SDS011;7777;52.254;9.618;2023-05-16T06:55:06;13.43;;;2.83;;
15354;SDS011;7777;52.254;9.618;2023-05-16T06:57:32;9.83;;;2.20;;
15354;SDS011;7777;52.254;9.618;2023-05-16T06:59:58;10.73;;;2.50;;
15354;SDS011;7777;52.254;9.618;2023-05-16T07:02:24;12.80;;;2.17;;
15354;SDS011;7777;52.254;9.618;2023-05-16T07:04:52;11.57;;;2.20;;
15354;SDS011;7777;52.254;9.618;2023-05-16T07:07:18;11.80;;;2.57;;
15354;SDS011;7777;52.254;9.618;2023-05-16T07:09:44;14.93;;;2.53;;
15354;SDS011;7777;52.254;9.618;2023-05-16T07:12:09;12.60;;;2.27;;
15354;SDS011;7777;52.254;9.618;2023-05-16T07:14:38;6.80;;;1.80;;
15354;SDS011;7777;52.254;9.618;2023-05-16T07:17:07;11.60;;;2.17;;
15354;SDS011;7777;52.254;9.618;2023-05-16T07:19:34;9.77;;;1.93;;
15354;SDS011;7777;52.254;9.618;2023-05-16T07:22:03;10.23;;;2.30;;
15354;SDS011;7777;52.254;9.618;2023-05-16T07:24:29;8.37;;;2.43;;
15354;SDS011;7777;52.254;9.618;2023-05-16T07:26:56;9.77;;;1.73;;
15354;SDS011;7777;52.254;9.618;2023-05-16T07:29:21;13.13;;;3.00;;
15354;SDS011;7777;52.254;9.618;2023-05-16T07:31:47;7.97;;;1.63;;
15354;SDS011;7777;52.254;9.618;2023-05-16T07:34:13;7.60;;;1.83;;
15354;SDS011;7777;52.254;9.618;2023-05-16T07:36:42;7.67;;;2.10;;
15354;SDS011;7777;52.254;9.618;2023-05-16T07:39:08;11.03;;;1.70;;
15354;SDS011;7777;52.254;9.618;2023-05-16T07:41:34;10.23;;;2.07;;
15354;SDS011;7777;52.254;9.618;2023-05-16T07:44:00;11.47;;;1.73;;
15354;SDS011;7777;52.254;9.618;2023-05-16T07:46:26;7.67;;;1.73;;
15354;SDS011;7777;52.254;9.618;2023-05-16T07:48:51;9.17;;;1.87;;
15354;SDS011;7777;52.254;9.618;2023-05-16T07:51:18;16.13;;;2.57;;
15354;SDS011;7777;52.254;9.618;2023-05-16T07:53:43;13.20;;;2.33;;
15354;SDS011;7777;52.254;9.618;2023-05-16T07:56:09;16.57;;;2.87;;
15354;SDS011;7777;52.254;9.618;2023-05-16T07:58:39;9.80;;;1.90;;
15354;SDS011;7777;52.254;9.618;2023-05-16T08:01:05;12.13;;;3.03;;
15354;SDS011;7777;52.254;9.618;2023-05-16T08:03:32;7.23;;;1.73;;
15354;SDS011;7777;52.254;9.618;2023-05-16T08:05:59;9.70;;;2.30;;
15354;SDS011;7777;52.254;9.618;2023-05-16T08:08:24;10.70;;;1.83;;
15354;SDS011;7777;52.254;9.618;2023-05-16T08:10:50;10.30;;;1.87;;
15354;SDS011;7777;52.254;9.618;2023-05-16T08:13:17;10.47;;;1.83;;
15354;SDS011;7777;52.254;9.618;2023-05-16T08:15:43;8.93;;;1.97;;
15354;SDS011;7777;52.254;9.618;2023-05-16T08:18:12;10.90;;;2.03;;
15354;SDS011;7777;52.254;9.618;2023-05-16T08:20:40;11.77;;;2.23;;
15354;SDS011;7777;52.254;9.618;2023-05-16T08:23:06;9.53;;;2.20;;
15354;SDS011;7777;52.254;9.618;2023-05-16T08:25:33;14.73;;;2.10;;
15354;SDS011;7777;52.254;9.618;2023-05-16T08:28:00;16.73;;;3.03;;
15354;SDS011;7777;52.254;9.618;2023-05-16T08:30:27;19.60;;;2.57;;
15354;SDS011;7777;52.254;9.618;2023-05-16T08:32:56;12.23;;;1.93;;
15354;SDS011;7777;52.254;9.618;2023-05-16T08:35:22;13.43;;;1.87;;
15354;SDS011;7777;52.254;9.618;2023-05-16T08:37:48;7.43;;;1.43;;
15354;SDS011;7777;52.254;9.618;2023-05-16T08:40:14;8.13;;;1.63;;
15354;SDS011;7777;52.254;9.618;2023-05-16T08:42:41;9.23;;;2.03;;
15354;SDS011;7777;52.254;9.618;2023-05-16T08:45:08;14.43;;;2.57;;
15354;SDS011;7777;52.254;9.618;2023-05-16T08:47:37;6.77;;;2.00;;
15354;SDS011;7777;52.254;9.618;2023-05-16T08:50:07;9.27;;;1.90;;
15354;SDS011;7777;52.254;9.618;2023-05-16T08:52:34;10.50;;;2.53;;
15354;SDS011;7777;52.254;9.618;2023-05-16T08:55:05;5.93;;;1.60;;
15354;SDS011;7777;52.254;9.618;2023-05-16T08:57:34;11.60;;;2.23;;
15354;SDS011;7777;52.254;9.618;2023-05-16T09:00:01;10.30;;;1.90;;
15354;SDS011;7777;52.254;9.618;2023-05-16T09:02:36;13.17;;;2.23;;
15354;SDS011;7777;52.254;9.618;2023-05-16T09:05:07;8.83;;;2.00;;
15354;SDS011;7777;52.254;9.618;2023-05-16T09:07:35;10.67;;;1.90;;
15354;SDS011;7777;52.254;9.618;2023-05-16T09:10:01;12.00;;;2.57;;
15354;SDS011;7777;52.254;9.618;2023-05-16T09:12:29;5.00;;;1.23;;
15354;SDS011;7777;52.254;9.618;2023-05-16T09:14:55;8.53;;;1.87;;
15354;SDS011;7777;52.254;9.618;2023-05-16T09:17:22;6.07;;;1.53;;
15354;SDS011;7777;52.254;9.618;2023-05-16T09:19:48;7.90;;;1.67;;
15354;SDS011;7777;52.254;9.618;2023-05-16T09:22:17;8.53;;;2.23;;
15354;SDS011;7777;52.254;9.618;2023-05-16T09:24:43;9.87;;;1.90;;
15354;SDS011;7777;52.254;9.618;2023-05-16T09:27:11;12.50;;;1.63;;
15354;SDS011;7777;52.254;9.618;2023-05-16T09:29:42;4.57;;;1.73;;
15354;SDS011;7777;52.254;9.618;2023-05-16T09:32:12;8.73;;;1.90;;
15354;SDS011;7777;52.254;9.618;2023-05-16T09:34:43;7.63;;;1.93;;
15354;SDS011;7777;52.254;9.618;2023-05-16T09:37:13;9.50;;;2.37;;
15354;SDS011;7777;52.254;9.618;2023-05-16T09:39:47;6.83;;;2.23;;
15354;SDS011;7777;52.254;9.618;2023-05-16T09:42:15;9.33;;;1.80;;
15354;SDS011;7777;52.254;9.618;2023-05-16T09:44:51;5.43;;;1.20;;
15354;SDS011;7777;52.254;9.618;2023-05-16T09:47:19;6.43;;;1.57;;
15354;SDS011;7777;52.254;9.618;2023-05-16T09:49:46;5.53;;;1.63;;
15354;SDS011;7777;52.254;9.618;2023-05-16T09:52:16;8.40;;;1.87;;
15354;SDS011;7777;52.254;9.618;2023-05-16T09:54:43;7.03;;;2.40;;
15354;SDS011;7777;52.254;9.618;2023-05-16T09:57:17;7.80;;;1.57;;
15354;SDS011;7777;52.254;9.618;2023-05-16T09:59:45;5.00;;;1.27;;
15354;SDS011;7777;52.254;9.618;2023-05-16T10:02:11;3.70;;;1.13;;
15354;SDS011;7777;52.254;9.618;2023-05-16T10:04:38;5.10;;;1.57;;
15354;SDS011;7777;52.254;9.618;2023-05-16T10:07:04;13.10;;;1.93;;
15354;SDS011;7777;52.254;9.618;2023-05-16T10:09:33;10.93;;;1.70;;
15354;SDS011;7777;52.254;9.618;2023-05-16T10:12:04;6.27;;;1.70;;
15354;SDS011;7777;52.254;9.618;2023-05-16T10:14:33;9.30;;;1.80;;
15354;SDS011;7777;52.254;9.618;2023-05-16T10:17:05;5.20;;;1.30;;
15354;SDS011;7777;52.254;9.618;2023-05-16T10:19:34;5.90;;;1.20;;
15354;SDS011;7777;52.254;9.618;2023-05-16T10:22:04;10.93;;;1.93;;
15354;SDS011;7777;52.254;9.618;2023-05-16T10:28:01;3.77;;;1.13;;
15354;SDS011;7777;52.254;9.618;2023-05-16T10:30:28;5.57;;;1.30;;
15354;SDS011;7777;52.254;9.618;2023-05-16T10:32:55;4.70;;;1.20;;
15354;SDS011;7777;52.254;9.618;2023-05-16T10:35:21;7.80;;;1.40;;
15354;SDS011;7777;52.254;9.618;2023-05-16T10:37:48;9.40;;;1.60;;
15354;SDS011;7777;52.254;9.618;2023-05-16T10:40:15;5.37;;;0.93;;
15354;SDS011;7777;52.254;9.618;2023-05-16T10:42:53;3.37;;;1.17;;
15354;SDS011;7777;52.254;9.618;2023-05-16T10:45:24;2.67;;;1.10;;
15354;SDS011;7777;52.254;9.618;2023-05-16T10:47:50;8.20;;;1.60;;
15354;SDS011;7777;52.254;9.618;2023-05-16T10:50:30;8.13;;;1.37;;
15354;SDS011;7777;52.254;9.618;2023-05-16T10:53:13;3.73;;;0.83;;
15354;SDS011;7777;52.254;9.618;2023-05-16T10:58:22;5.77;;;1.53;;
15354;SDS011;7777;52.254;9.618;2023-05-16T11:06:42;2.93;;;1.00;;
15354;SDS011;7777;52.254;9.618;2023-05-16T11:11:46;3.97;;;1.30;;
15354;SDS011;7777;52.254;9.618;2023-05-16T11:14:28;3.97;;;1.00;;
15354;SDS011;7777;52.254;9.618;2023-05-16T11:19:44;6.93;;;1.30;;
15354;SDS011;7777;52.254;9.618;2023-05-16T11:24:54;9.60;;;1.83;;
15354;SDS011;7777;52.254;9.618;2023-05-16T11:27:34;7.77;;;1.50;;
15354;SDS011;7777;52.254;9.618;2023-05-16T11:32:42;5.27;;;1.23;;
15354;SDS011;7777;52.254;9.618;2023-05-16T11:35:18;5.63;;;1.70;;
15354;SDS011;7777;52.254;9.618;2023-05-16T11:37:46;8.93;;;1.50;;
15354;SDS011;7777;52.254;9.618;2023-05-16T11:40:12;10.17;;;1.80;;
15354;SDS011;7777;52.254;9.618;2023-05-16T11:42:42;5.57;;;1.20;;
15354;SDS011;7777;52.254;9.618;2023-05-16T11:45:16;13.47;;;1.73;;
15354;SDS011;7777;52.254;9.618;2023-05-16T11:47:45;5.77;;;1.50;;
15354;SDS011;7777;52.254;9.618;2023-05-16T11:50:22;4.10;;;1.20;;
15354;SDS011;7777;52.254;9.618;2023-05-16T11:52:49;5.57;;;1.43;;
15354;SDS011;7777;52.254;9.618;2023-05-16T11:55:18;5.70;;;1.40;;
15354;SDS011;7777;52.254;9.618;2023-05-16T11:57:47;3.37;;;1.03;;
15354;SDS011;7777;52.254;9.618;2023-05-16T12:00:19;4.73;;;1.07;;
15354;SDS011;7777;52.254;9.618;2023-05-16T12:02:48;5.17;;;1.13;;
15354;SDS011;7777;52.254;9.618;2023-05-16T12:05:15;4.53;;;1.00;;
15354;SDS011;7777;52.254;9.618;2023-05-16T12:07:49;9.00;;;1.43;;
15354;SDS011;7777;52.254;9.618;2023-05-16T12:10:15;3.77;;;1.20;;
15354;SDS011;7777;52.254;9.618;2023-05-16T12:12:45;2.97;;;1.13;;
15354;SDS011;7777;52.254;9.618;2023-05-16T12:15:13;3.77;;;0.93;;
15354;SDS011;7777;52.254;9.618;2023-05-16T12:17:39;10.37;;;1.40;;
15354;SDS011;7777;52.254;9.618;2023-05-16T12:20:06;3.57;;;0.90;;
15354;SDS011;7777;52.254;9.618;2023-05-16T12:22:42;3.67;;;1.17;;
15354;SDS011;7777;52.254;9.618;2023-05-16T12:28:00;2.70;;;0.73;;
15354;SDS011;7777;52.254;9.618;2023-05-16T12:30:28;6.20;;;1.20;;
15354;SDS011;7777;52.254;9.618;2023-05-16T12:35:36;7.40;;;1.40;;
15354;SDS011;7777;52.254;9.618;2023-05-16T12:38:04;6.17;;;1.10;;
15354;SDS011;7777;52.254;9.618;2023-05-16T12:40:32;5.70;;;1.43;;
15354;SDS011;7777;52.254;9.618;2023-05-16T12:42:57;5.00;;;1.20;;
15354;SDS011;7777;52.254;9.618;2023-05-16T12:45:25;4.33;;;1.13;;
15354;SDS011;7777;52.254;9.618;2023-05-16T12:47:51;4.03;;;1.30;;
15354;SDS011;7777;52.254;9.618;2023-05-16T12:50:17;2.83;;;0.87;;
15354;SDS011;7777;52.254;9.618;2023-05-16T12:52:50;7.03;;;1.10;;
15354;SDS011;7777;52.254;9.618;2023-05-16T12:55:18;6.17;;;1.43;;
15354;SDS011;7777;52.254;9.618;2023-05-16T12:57:46;6.27;;;1.43;;
15354;SDS011;7777;52.254;9.618;2023-05-16T13:00:14;4.47;;;1.30;;
15354;SDS011;7777;52.254;9.618;2023-05-16T13:02:45;6.47;;;1.27;;
15354;SDS011;7777;52.254;9.618;2023-05-16T13:05:14;8.07;;;1.43;;
15354;SDS011;7777;52.254;9.618;2023-05-16T13:07:39;6.10;;;1.63;;
15354;SDS011;7777;52.254;9.618;2023-05-16T13:10:08;6.23;;;1.60;;
15354;SDS011;7777;52.254;9.618;2023-05-16T13:12:38;3.10;;;1.30;;
15354;SDS011;7777;52.254;9.618;2023-05-16T13:15:05;9.57;;;1.93;;
15354;SDS011;7777;52.254;9.618;2023-05-16T13:17:33;4.00;;;1.50;;
15354;SDS011;7777;52.254;9.618;2023-05-16T13:20:00;3.90;;;1.00;;
15354;SDS011;7777;52.254;9.618;2023-05-16T13:22:26;4.27;;;1.63;;
15354;SDS011;7777;52.254;9.618;2023-05-16T13:24:53;4.63;;;1.10;;
15354;SDS011;7777;52.254;9.618;2023-05-16T13:27:19;5.47;;;1.20;;
15354;SDS011;7777;52.254;9.618;2023-05-16T13:29:44;3.97;;;1.40;;
15354;SDS011;7777;52.254;9.618;2023-05-16T13:32:10;3.60;;;1.00;;
15354;SDS011;7777;52.254;9.618;2023-05-16T13:34:36;3.33;;;1.23;;
15354;SDS011;7777;52.254;9.618;2023-05-16T13:37:04;3.83;;;1.00;;
15354;SDS011;7777;52.254;9.618;2023-05-16T13:39:30;3.37;;;1.13;;
15354;SDS011;7777;52.254;9.618;2023-05-16T13:41:56;5.27;;;1.00;;
15354;SDS011;7777;52.254;9.618;2023-05-16T13:44:22;4.67;;;1.20;;
15354;SDS011;7777;52.254;9.618;2023-05-16T13:46:50;9.90;;;1.33;;
15354;SDS011;7777;52.254;9.618;2023-05-16T13:49:16;5.23;;;1.07;;
15354;SDS011;7777;52.254;9.618;2023-05-16T13:51:43;5.73;;;1.10;;
15354;SDS011;7777;52.254;9.618;2023-05-16T13:54:09;5.03;;;0.97;;
15354;SDS011;7777;52.254;9.618;2023-05-16T13:56:35;9.03;;;1.00;;
15354;SDS011;7777;52.254;9.618;2023-05-16T13:59:00;3.53;;;1.07;;
15354;SDS011;7777;52.254;9.618;2023-05-16T14:01:26;5.57;;;1.00;;
15354;SDS011;7777;52.254;9.618;2023-05-16T14:03:52;6.00;;;0.80;;
15354;SDS011;7777;52.254;9.618;2023-05-16T14:06:17;4.53;;;1.30;;
15354;SDS011;7777;52.254;9.618;2023-05-16T14:08:43;7.10;;;1.20;;
15354;SDS011;7777;52.254;9.618;2023-05-16T14:11:09;8.20;;;1.00;;
15354;SDS011;7777;52.254;9.618;2023-05-16T14:13:35;6.80;;;1.60;;
15354;SDS011;7777;52.254;9.618;2023-05-16T14:16:01;6.23;;;1.20;;
15354;SDS011;7777;52.254;9.618;2023-05-16T14:18:26;3.17;;;1.27;;
15354;SDS011;7777;52.254;9.618;2023-05-16T14:20:52;7.27;;;1.27;;
15354;SDS011;7777;52.254;9.618;2023-05-16T14:23:20;5.63;;;1.03;;
15354;SDS011;7777;52.254;9.618;2023-05-16T14:25:46;6.93;;;1.40;;
15354;SDS011;7777;52.254;9.618;2023-05-16T14:28:12;5.60;;;1.00;;
15354;SDS011;7777;52.254;9.618;2023-05-16T14:30:38;10.93;;;1.73;;
15354;SDS011;7777;52.254;9.618;2023-05-16T14:33:04;5.70;;;1.20;;
15354;SDS011;7777;52.254;9.618;2023-05-16T14:35:30;5.43;;;1.53;;
15354;SDS011;7777;52.254;9.618;2023-05-16T14:37:57;7.53;;;1.20;;
15354;SDS011;7777;52.254;9.618;2023-05-16T14:40:22;61.80;;;7.10;;
15354;SDS011;7777;52.254;9.618;2023-05-16T14:42:50;8.83;;;1.60;;
15354;SDS011;7777;52.254;9.618;2023-05-16T14:45:16;3.33;;;1.13;;
15354;SDS011;7777;52.254;9.618;2023-05-16T14:47:42;3.27;;;1.07;;
15354;SDS011;7777;52.254;9.618;2023-05-16T14:50:08;4.50;;;1.50;;
15354;SDS011;7777;52.254;9.618;2023-05-16T14:52:36;3.40;;;1.17;;
15354;SDS011;7777;52.254;9.618;2023-05-16T14:55:04;3.47;;;0.70;;
15354;SDS011;7777;52.254;9.618;2023-05-16T14:57:30;1.93;;;0.70;;
15354;SDS011;7777;52.254;9.618;2023-05-16T14:59:56;4.07;;;0.90;;
15354;SDS011;7777;52.254;9.618;2023-05-16T15:02:22;4.70;;;1.20;;
15354;SDS011;7777;52.254;9.618;2023-05-16T15:04:55;4.77;;;1.03;;
15354;SDS011;7777;52.254;9.618;2023-05-16T15:07:26;3.90;;;1.13;;
15354;SDS011;7777;52.254;9.618;2023-05-16T15:09:52;4.30;;;0.87;;
15354;SDS011;7777;52.254;9.618;2023-05-16T15:12:19;1.63;;;0.70;;
15354;SDS011;7777;52.254;9.618;2023-05-16T15:14:45;3.43;;;0.80;;
15354;SDS011;7777;52.254;9.618;2023-05-16T15:17:11;5.27;;;1.33;;
15354;SDS011;7777;52.254;9.618;2023-05-16T15:19:37;5.03;;;0.90;;
15354;SDS011;7777;52.254;9.618;2023-05-16T15:22:03;3.40;;;0.93;;
15354;SDS011;7777;52.254;9.618;2023-05-16T15:24:31;3.83;;;1.07;;
15354;SDS011;7777;52.254;9.618;2023-05-16T15:26:58;3.50;;;0.87;;
15354;SDS011;7777;52.254;9.618;2023-05-16T15:29:24;8.20;;;1.90;;
15354;SDS011;7777;52.254;9.618;2023-05-16T15:31:50;2.57;;;1.10;;
15354;SDS011;7777;52.254;9.618;2023-05-16T15:34:15;4.23;;;1.03;;
15354;SDS011;7777;52.254;9.618;2023-05-16T15:36:41;4.53;;;1.17;;
15354;SDS011;7777;52.254;9.618;2023-05-16T15:39:07;4.40;;;0.80;;
15354;SDS011;7777;52.254;9.618;2023-05-16T15:41:33;3.67;;;0.87;;
15354;SDS011;7777;52.254;9.618;2023-05-16T15:44:07;6.33;;;1.33;;
15354;SDS011;7777;52.254;9.618;2023-05-16T15:49:30;4.73;;;0.97;;
15354;SDS011;7777;52.254;9.618;2023-05-16T15:51:56;4.37;;;0.87;;
15354;SDS011;7777;52.254;9.618;2023-05-16T15:54:21;2.53;;;0.60;;
15354;SDS011;7777;52.254;9.618;2023-05-16T15:56:47;2.73;;;0.90;;
15354;SDS011;7777;52.254;9.618;2023-05-16T15:59:16;4.33;;;1.13;;
15354;SDS011;7777;52.254;9.618;2023-05-16T16:01:46;2.30;;;0.77;;
15354;SDS011;7777;52.254;9.618;2023-05-16T16:04:12;2.70;;;0.80;;
15354;SDS011;7777;52.254;9.618;2023-05-16T16:06:37;2.13;;;0.70;;
15354;SDS011;7777;52.254;9.618;2023-05-16T16:12:00;3.83;;;0.70;;
15354;SDS011;7777;52.254;9.618;2023-05-16T16:14:28;2.17;;;0.80;;
15354;SDS011;7777;52.254;9.618;2023-05-16T16:16:54;4.40;;;0.80;;
15354;SDS011;7777;52.254;9.618;2023-05-16T16:19:19;5.83;;;1.40;;
15354;SDS011;7777;52.254;9.618;2023-05-16T16:21:45;4.43;;;1.07;;
15354;SDS011;7777;52.254;9.618;2023-05-16T16:24:11;2.43;;;0.80;;
15354;SDS011;7777;52.254;9.618;2023-05-16T16:26:37;5.07;;;1.00;;
15354;SDS011;7777;52.254;9.618;2023-05-16T16:29:03;3.53;;;1.10;;
15354;SDS011;7777;52.254;9.618;2023-05-16T16:31:30;3.67;;;1.33;;
15354;SDS011;7777;52.254;9.618;2023-05-16T16:33:56;6.97;;;1.40;;
15354;SDS011;7777;52.254;9.618;2023-05-16T16:36:21;6.13;;;1.63;;
15354;SDS011;7777;52.254;9.618;2023-05-16T16:38:47;6.67;;;1.30;;
15354;SDS011;7777;52.254;9.618;2023-05-16T16:41:13;6.90;;;1.47;;
15354;SDS011;7777;52.254;9.618;2023-05-16T16:43:39;3.73;;;1.03;;
15354;SDS011;7777;52.254;9.618;2023-05-16T16:46:05;4.20;;;0.93;;
15354;SDS011;7777;52.254;9.618;2023-05-16T16:48:32;6.43;;;1.60;;
15354;SDS011;7777;52.254;9.618;2023-05-16T16:51:01;7.73;;;2.00;;
15354;SDS011;7777;52.254;9.618;2023-05-16T16:53:28;5.70;;;1.70;;